sensor_id;sensor_type;location;lat;lon;timestamp;temperature;humidity
39023;DHT22;25908;51.984;5.928;2023-03-22T00:01:14;11.70;99.90
39023;DHT22;25908;51.984;5.928;2023-03-22T00:03:40;11.70;99.90
39023;DHT22;25908;51.984;5.928;2023-03-22T00:06:06;11.70;99.90
39023;DHT22;25908;51.984;5.928;2023-03-22T00:08:32;11.70;99.90
39023;DHT22;25908;51.984;5.928;2023-03-22T00:10:57;11.60;99.90
39023;DHT22;25908;51.984;5.928;2023-03-22T00:13:24;11.60;99.90
39023;DHT22;25908;51.984;5.928;2023-03-22T00:15:50;11.60;99.90
39023;DHT22;25908;51.984;5.928;2023-03-22T00:18:16;11.60;99.90
39023;DHT22;25908;51.984;5.928;2023-03-22T00:20:56;11.60;99.90
39023;DHT22;25908;51.984;5.928;2023-03-22T00:23:23;11.60;99.90
39023;DHT22;25908;51.984;5.928;2023-03-22T00:25:49;11.60;99.90
39023;DHT22;25908;51.984;5.928;2023-03-22T00:28:15;11.60;99.90
39023;DHT22;25908;51.984;5.928;2023-03-22T00:30:42;11.60;99.90
39023;DHT22;25908;51.984;5.928;2023-03-22T00:33:08;11.60;99.90
39023;DHT22;25908;51.984;5.928;2023-03-22T00:35:34;11.60;99.90
39023;DHT22;25908;51.984;5.928;2023-03-22T00:38:00;11.60;99.90
39023;DHT22;25908;51.984;5.928;2023-03-22T00:40:31;11.60;99.90
39023;DHT22;25908;51.984;5.928;2023-03-22T00:42:58;11.50;99.90
39023;DHT22;25908;51.984;5.928;2023-03-22T00:45:23;11.50;99.90
39023;DHT22;25908;51.984;5.928;2023-03-22T00:47:49;11.50;99.90
39023;DHT22;25908;51.984;5.928;2023-03-22T00:50:15;11.50;99.90
39023;DHT22;25908;51.984;5.928;2023-03-22T00:52:40;11.50;99.90
39023;DHT22;25908;51.984;5.928;2023-03-22T00:55:06;11.50;99.90
39023;DHT22;25908;51.984;5.928;2023-03-22T00:57:32;11.50;99.90
39023;DHT22;25908;51.984;5.928;2023-03-22T00:59:57;11.50;99.90
39023;DHT22;25908;51.984;5.928;2023-03-22T01:02:23;11.40;99.90
39023;DHT22;25908;51.984;5.928;2023-03-22T01:04:54;11.40;99.90
39023;DHT22;25908;51.984;5.928;2023-03-22T01:07:21;11.40;99.90
39023;DHT22;25908;51.984;5.928;2023-03-22T01:09:52;11.40;99.90
39023;DHT22;25908;51.984;5.928;2023-03-22T01:12:18;11.40;99.90
39023;DHT22;25908;51.984;5.928;2023-03-22T01:14:44;11.40;99.90
39023;DHT22;25908;51.984;5.928;2023-03-22T01:17:10;11.50;99.90
39023;DHT22;25908;51.984;5.928;2023-03-22T01:19:36;11.40;99.90
39023;DHT22;25908;51.984;5.928;2023-03-22T01:22:03;11.50;99.90
39023;DHT22;25908;51.984;5.928;2023-03-22T01:24:29;11.40;99.90
39023;DHT22;25908;51.984;5.928;2023-03-22T01:26:55;11.50;99.90
39023;DHT22;25908;51.984;5.928;2023-03-22T01:29:22;11.50;99.90
39023;DHT22;25908;51.984;5.928;2023-03-22T01:31:48;11.50;99.90
39023;DHT22;25908;51.984;5.928;2023-03-22T01:34:13;11.40;99.90
39023;DHT22;25908;51.984;5.928;2023-03-22T01:36:39;11.40;99.90
39023;DHT22;25908;51.984;5.928;2023-03-22T01:39:04;11.40;99.90
39023;DHT22;25908;51.984;5.928;2023-03-22T01:41:31;11.40;99.90
39023;DHT22;25908;51.984;5.928;2023-03-22T01:44:19;11.40;99.90
39023;DHT22;25908;51.984;5.928;2023-03-22T01:46:47;11.40;99.90
39023;DHT22;25908;51.984;5.928;2023-03-22T01:49:16;11.30;99.90
39023;DHT22;25908;51.984;5.928;2023-03-22T01:51:45;11.30;99.90
39023;DHT22;25908;51.984;5.928;2023-03-22T01:54:17;11.30;99.90
39023;DHT22;25908;51.984;5.928;2023-03-22T01:56:45;11.30;99.90
39023;DHT22;25908;51.984;5.928;2023-03-22T01:59:13;11.30;99.90
39023;DHT22;25908;51.984;5.928;2023-03-22T02:01:39;11.40;99.90
39023;DHT22;25908;51.984;5.928;2023-03-22T02:04:15;11.30;99.90
39023;DHT22;25908;51.984;5.928;2023-03-22T02:06:44;11.30;99.90
39023;DHT22;25908;51.984;5.928;2023-03-22T02:09:13;11.30;99.90
39023;DHT22;25908;51.984;5.928;2023-03-22T02:14:35;11.30;99.90
39023;DHT22;25908;51.984;5.928;2023-03-22T02:30:38;11.40;99.90
39023;DHT22;25908;51.984;5.928;2023-03-22T02:44:38;11.40;99.90
39023;DHT22;25908;51.984;5.928;2023-03-22T02:50:02;11.40;99.90
39023;DHT22;25908;51.984;5.928;2023-03-22T02:55:11;11.40;99.90
39023;DHT22;25908;51.984;5.928;2023-03-22T02:57:49;11.40;99.90
39023;DHT22;25908;51.984;5.928;2023-03-22T03:00:18;11.40;99.90
39023;DHT22;25908;51.984;5.928;2023-03-22T03:02:48;11.50;99.90
39023;DHT22;25908;51.984;5.928;2023-03-22T03:05:17;11.50;99.90
39023;DHT22;25908;51.984;5.928;2023-03-22T03:07:47;11.50;99.90
39023;DHT22;25908;51.984;5.928;2023-03-22T03:10:15;11.50;99.90
39023;DHT22;25908;51.984;5.928;2023-03-22T03:12:42;11.50;99.90
39023;DHT22;25908;51.984;5.928;2023-03-22T03:15:17;11.50;99.90
39023;DHT22;25908;51.984;5.928;2023-03-22T03:18:57;11.50;99.90
39023;DHT22;25908;51.984;5.928;2023-03-22T03:21:23;11.50;99.90
39023;DHT22;25908;51.984;5.928;2023-03-22T03:27:01;11.50;99.90
39023;DHT22;25908;51.984;5.928;2023-03-22T03:29:50;11.50;99.90
39023;DHT22;25908;51.984;5.928;2023-03-22T03:32:33;11.50;99.90
39023;DHT22;25908;51.984;5.928;2023-03-22T03:35:06;11.40;99.90
39023;DHT22;25908;51.984;5.928;2023-03-22T03:37:37;11.40;99.90
39023;DHT22;25908;51.984;5.928;2023-03-22T03:40:06;11.40;99.90
39023;DHT22;25908;51.984;5.928;2023-03-22T03:42:37;11.40;99.90
39023;DHT22;25908;51.984;5.928;2023-03-22T03:45:04;11.40;99.90
39023;DHT22;25908;51.984;5.928;2023-03-22T03:47:31;11.40;99.90
39023;DHT22;25908;51.984;5.928;2023-03-22T03:49:57;11.40;99.90
39023;DHT22;25908;51.984;5.928;2023-03-22T03:52:22;11.40;99.90
39023;DHT22;25908;51.984;5.928;2023-03-22T03:54:50;11.40;99.90
39023;DHT22;25908;51.984;5.928;2023-03-22T03:57:16;11.40;99.90
39023;DHT22;25908;51.984;5.928;2023-03-22T03:59:41;11.40;99.90
39023;DHT22;25908;51.984;5.928;2023-03-22T04:02:07;11.40;99.90
39023;DHT22;25908;51.984;5.928;2023-03-22T04:04:33;11.40;99.90
39023;DHT22;25908;51.984;5.928;2023-03-22T04:07:00;11.40;99.90
39023;DHT22;25908;51.984;5.928;2023-03-22T04:09:29;11.50;99.90
39023;DHT22;25908;51.984;5.928;2023-03-22T04:11:56;11.50;99.90
39023;DHT22;25908;51.984;5.928;2023-03-22T04:14:22;11.40;99.90
39023;DHT22;25908;51.984;5.928;2023-03-22T04:16:49;11.40;99.90
39023;DHT22;25908;51.984;5.928;2023-03-22T04:19:15;11.40;99.90
39023;DHT22;25908;51.984;5.928;2023-03-22T04:21:41;11.30;99.90
39023;DHT22;25908;51.984;5.928;2023-03-22T04:24:07;11.30;99.90
39023;DHT22;25908;51.984;5.928;2023-03-22T04:26:33;11.40;99.90
39023;DHT22;25908;51.984;5.928;2023-03-22T04:28:59;11.40;99.90
39023;DHT22;25908;51.984;5.928;2023-03-22T04:31:28;11.30;99.90
39023;DHT22;25908;51.984;5.928;2023-03-22T04:33:54;11.40;99.90
39023;DHT22;25908;51.984;5.928;2023-03-22T04:36:22;11.30;99.90
39023;DHT22;25908;51.984;5.928;2023-03-22T04:38:49;11.30;99.90
39023;DHT22;25908;51.984;5.928;2023-03-22T04:41:16;11.30;99.90
39023;DHT22;25908;51.984;5.928;2023-03-22T04:43:41;11.30;99.90
39023;DHT22;25908;51.984;5.928;2023-03-22T04:46:12;11.30;99.90
39023;DHT22;25908;51.984;5.928;2023-03-22T04:48:39;11.30;99.90
39023;DHT22;25908;51.984;5.928;2023-03-22T04:51:07;11.30;99.90
39023;DHT22;25908;51.984;5.928;2023-03-22T04:53:33;11.30;99.90
39023;DHT22;25908;51.984;5.928;2023-03-22T04:56:04;11.30;99.90
39023;DHT22;25908;51.984;5.928;2023-03-22T04:58:32;11.30;99.90
39023;DHT22;25908;51.984;5.928;2023-03-22T05:00:58;11.20;99.90
39023;DHT22;25908;51.984;5.928;2023-03-22T05:03:24;11.30;99.90
39023;DHT22;25908;51.984;5.928;2023-03-22T05:05:55;11.20;99.90
39023;DHT22;25908;51.984;5.928;2023-03-22T05:08:22;11.20;99.90
39023;DHT22;25908;51.984;5.928;2023-03-22T05:10:53;11.20;99.90
39023;DHT22;25908;51.984;5.928;2023-03-22T05:13:20;11.20;99.90
39023;DHT22;25908;51.984;5.928;2023-03-22T05:15:46;11.20;99.90
39023;DHT22;25908;51.984;5.928;2023-03-22T05:18:14;11.30;99.90
39023;DHT22;25908;51.984;5.928;2023-03-22T05:20:40;11.30;99.90
39023;DHT22;25908;51.984;5.928;2023-03-22T05:23:06;11.30;99.90
39023;DHT22;25908;51.984;5.928;2023-03-22T05:25:34;11.30;99.90
39023;DHT22;25908;51.984;5.928;2023-03-22T05:28:00;11.30;99.90
39023;DHT22;25908;51.984;5.928;2023-03-22T05:30:29;11.30;99.90
39023;DHT22;25908;51.984;5.928;2023-03-22T05:33:01;11.30;99.90
39023;DHT22;25908;51.984;5.928;2023-03-22T05:35:32;11.30;99.90
39023;DHT22;25908;51.984;5.928;2023-03-22T05:37:58;11.30;99.90
39023;DHT22;25908;51.984;5.928;2023-03-22T05:40:24;11.20;99.90
39023;DHT22;25908;51.984;5.928;2023-03-22T05:42:51;11.20;99.90
39023;DHT22;25908;51.984;5.928;2023-03-22T05:45:17;11.20;99.90
39023;DHT22;25908;51.984;5.928;2023-03-22T05:47:43;11.20;99.90
39023;DHT22;25908;51.984;5.928;2023-03-22T05:50:10;11.10;99.90
39023;DHT22;25908;51.984;5.928;2023-03-22T05:52:36;11.20;99.90
39023;DHT22;25908;51.984;5.928;2023-03-22T05:55:03;11.20;99.90
39023;DHT22;25908;51.984;5.928;2023-03-22T05:57:28;11.10;99.90
39023;DHT22;25908;51.984;5.928;2023-03-22T05:59:55;11.10;99.90
39023;DHT22;25908;51.984;5.928;2023-03-22T06:02:21;11.10;99.90
39023;DHT22;25908;51.984;5.928;2023-03-22T06:04:47;11.10;99.90
39023;DHT22;25908;51.984;5.928;2023-03-22T06:07:13;11.10;99.90
39023;DHT22;25908;51.984;5.928;2023-03-22T06:09:39;11.10;99.90
39023;DHT22;25908;51.984;5.928;2023-03-22T06:12:04;11.10;99.90
39023;DHT22;25908;51.984;5.928;2023-03-22T06:14:30;11.10;99.90
39023;DHT22;25908;51.984;5.928;2023-03-22T06:16:56;11.10;99.90
39023;DHT22;25908;51.984;5.928;2023-03-22T06:19:21;11.20;99.90
39023;DHT22;25908;51.984;5.928;2023-03-22T06:21:48;11.20;99.90
39023;DHT22;25908;51.984;5.928;2023-03-22T06:24:13;11.10;99.90
39023;DHT22;25908;51.984;5.928;2023-03-22T06:26:39;11.10;99.90
39023;DHT22;25908;51.984;5.928;2023-03-22T06:29:05;11.10;99.90
39023;DHT22;25908;51.984;5.928;2023-03-22T06:31:30;11.10;99.90
39023;DHT22;25908;51.984;5.928;2023-03-22T06:33:56;11.10;99.90
39023;DHT22;25908;51.984;5.928;2023-03-22T06:36:21;11.20;99.90
39023;DHT22;25908;51.984;5.928;2023-03-22T06:38:47;11.20;99.90
39023;DHT22;25908;51.984;5.928;2023-03-22T06:41:13;11.20;99.90
39023;DHT22;25908;51.984;5.928;2023-03-22T06:43:39;11.20;99.90
39023;DHT22;25908;51.984;5.928;2023-03-22T06:46:04;11.10;99.90
39023;DHT22;25908;51.984;5.928;2023-03-22T06:48:30;11.10;99.90
39023;DHT22;25908;51.984;5.928;2023-03-22T06:50:55;11.20;99.90
39023;DHT22;25908;51.984;5.928;2023-03-22T06:53:21;11.20;99.90
39023;DHT22;25908;51.984;5.928;2023-03-22T06:55:47;11.20;99.90
39023;DHT22;25908;51.984;5.928;2023-03-22T06:58:12;11.10;99.90
39023;DHT22;25908;51.984;5.928;2023-03-22T07:00:38;11.10;99.90
39023;DHT22;25908;51.984;5.928;2023-03-22T07:03:03;11.20;99.90
39023;DHT22;25908;51.984;5.928;2023-03-22T07:05:29;11.20;99.90
39023;DHT22;25908;51.984;5.928;2023-03-22T07:07:55;11.30;99.90
39023;DHT22;25908;51.984;5.928;2023-03-22T07:10:21;11.30;99.90
39023;DHT22;25908;51.984;5.928;2023-03-22T07:12:46;11.30;99.90
39023;DHT22;25908;51.984;5.928;2023-03-22T07:15:12;11.30;99.90
39023;DHT22;25908;51.984;5.928;2023-03-22T07:17:38;11.40;99.90
39023;DHT22;25908;51.984;5.928;2023-03-22T07:20:04;11.40;99.90
39023;DHT22;25908;51.984;5.928;2023-03-22T07:22:29;11.50;99.90
39023;DHT22;25908;51.984;5.928;2023-03-22T07:24:55;11.60;99.90
39023;DHT22;25908;51.984;5.928;2023-03-22T07:27:21;11.60;99.90
39023;DHT22;25908;51.984;5.928;2023-03-22T07:29:46;11.60;99.90
39023;DHT22;25908;51.984;5.928;2023-03-22T07:32:12;11.70;99.90
39023;DHT22;25908;51.984;5.928;2023-03-22T07:34:38;11.70;99.90
39023;DHT22;25908;51.984;5.928;2023-03-22T07:37:03;11.70;99.90
39023;DHT22;25908;51.984;5.928;2023-03-22T07:39:29;11.80;99.90
39023;DHT22;25908;51.984;5.928;2023-03-22T07:41:55;11.80;99.90
39023;DHT22;25908;51.984;5.928;2023-03-22T07:44:21;11.80;99.90
39023;DHT22;25908;51.984;5.928;2023-03-22T07:46:47;11.80;99.90
39023;DHT22;25908;51.984;5.928;2023-03-22T07:49:13;11.80;99.90
39023;DHT22;25908;51.984;5.928;2023-03-22T07:51:39;11.80;99.90
39023;DHT22;25908;51.984;5.928;2023-03-22T07:54:05;11.70;99.90
39023;DHT22;25908;51.984;5.928;2023-03-22T07:56:31;11.70;99.90
39023;DHT22;25908;51.984;5.928;2023-03-22T07:58:56;11.70;99.90
39023;DHT22;25908;51.984;5.928;2023-03-22T08:01:22;11.70;99.90
39023;DHT22;25908;51.984;5.928;2023-03-22T08:03:49;11.70;99.90
39023;DHT22;25908;51.984;5.928;2023-03-22T08:06:15;11.80;99.90
39023;DHT22;25908;51.984;5.928;2023-03-22T08:08:44;11.80;99.90
39023;DHT22;25908;51.984;5.928;2023-03-22T08:11:10;11.90;99.90
39023;DHT22;25908;51.984;5.928;2023-03-22T08:13:37;11.90;99.90
39023;DHT22;25908;51.984;5.928;2023-03-22T08:16:03;12.00;99.90
39023;DHT22;25908;51.984;5.928;2023-03-22T08:18:28;11.90;99.90
39023;DHT22;25908;51.984;5.928;2023-03-22T08:20:58;12.00;99.90
39023;DHT22;25908;51.984;5.928;2023-03-22T08:23:26;12.00;99.90
39023;DHT22;25908;51.984;5.928;2023-03-22T08:25:52;12.00;99.90
39023;DHT22;25908;51.984;5.928;2023-03-22T08:28:18;12.10;99.90
39023;DHT22;25908;51.984;5.928;2023-03-22T08:30:46;12.10;99.90
39023;DHT22;25908;51.984;5.928;2023-03-22T08:33:12;12.10;99.90
39023;DHT22;25908;51.984;5.928;2023-03-22T08:35:39;12.20;99.90
39023;DHT22;25908;51.984;5.928;2023-03-22T08:38:04;12.20;99.90
39023;DHT22;25908;51.984;5.928;2023-03-22T08:40:30;12.20;99.90
39023;DHT22;25908;51.984;5.928;2023-03-22T08:42:57;12.30;99.90
39023;DHT22;25908;51.984;5.928;2023-03-22T08:45:23;12.30;99.90
39023;DHT22;25908;51.984;5.928;2023-03-22T08:47:49;12.30;99.90
39023;DHT22;25908;51.984;5.928;2023-03-22T08:50:15;12.40;99.90
39023;DHT22;25908;51.984;5.928;2023-03-22T08:52:40;12.40;99.90
39023;DHT22;25908;51.984;5.928;2023-03-22T08:55:07;12.40;99.90
39023;DHT22;25908;51.984;5.928;2023-03-22T08:57:34;12.50;99.90
39023;DHT22;25908;51.984;5.928;2023-03-22T09:00:00;12.60;99.90
39023;DHT22;25908;51.984;5.928;2023-03-22T09:02:26;12.70;99.90
39023;DHT22;25908;51.984;5.928;2023-03-22T09:04:52;12.80;99.90
39023;DHT22;25908;51.984;5.928;2023-03-22T09:07:18;12.80;99.90
39023;DHT22;25908;51.984;5.928;2023-03-22T09:09:48;12.90;99.90
39023;DHT22;25908;51.984;5.928;2023-03-22T09:12:15;12.90;99.90
39023;DHT22;25908;51.984;5.928;2023-03-22T09:14:40;12.90;99.90
39023;DHT22;25908;51.984;5.928;2023-03-22T09:17:06;12.90;99.90
39023;DHT22;25908;51.984;5.928;2023-03-22T09:19:31;12.90;99.90
39023;DHT22;25908;51.984;5.928;2023-03-22T09:21:57;13.00;99.90
39023;DHT22;25908;51.984;5.928;2023-03-22T09:24:23;13.00;99.90
39023;DHT22;25908;51.984;5.928;2023-03-22T09:26:48;13.10;99.90
39023;DHT22;25908;51.984;5.928;2023-03-22T09:29:14;13.10;99.90
39023;DHT22;25908;51.984;5.928;2023-03-22T09:31:40;13.10;99.90
39023;DHT22;25908;51.984;5.928;2023-03-22T09:34:06;13.20;99.90
39023;DHT22;25908;51.984;5.928;2023-03-22T09:36:31;13.20;99.90
39023;DHT22;25908;51.984;5.928;2023-03-22T09:38:57;13.20;99.90
39023;DHT22;25908;51.984;5.928;2023-03-22T09:41:53;13.20;99.90
39023;DHT22;25908;51.984;5.928;2023-03-22T09:44:31;13.20;99.90
39023;DHT22;25908;51.984;5.928;2023-03-22T09:46:59;13.20;99.90
39023;DHT22;25908;51.984;5.928;2023-03-22T09:49:39;13.10;99.90
39023;DHT22;25908;51.984;5.928;2023-03-22T09:52:12;13.20;99.90
39023;DHT22;25908;51.984;5.928;2023-03-22T09:54:39;13.10;99.90
39023;DHT22;25908;51.984;5.928;2023-03-22T09:57:34;13.10;99.90
39023;DHT22;25908;51.984;5.928;2023-03-22T10:00:26;13.10;99.90
39023;DHT22;25908;51.984;5.928;2023-03-22T10:05:52;13.00;99.90
39023;DHT22;25908;51.984;5.928;2023-03-22T10:11:10;12.90;99.90
39023;DHT22;25908;51.984;5.928;2023-03-22T10:13:44;12.90;99.90
39023;DHT22;25908;51.984;5.928;2023-03-22T10:16:29;12.90;99.90
39023;DHT22;25908;51.984;5.928;2023-03-22T10:19:12;12.90;99.90
39023;DHT22;25908;51.984;5.928;2023-03-22T10:21:42;12.90;99.90
39023;DHT22;25908;51.984;5.928;2023-03-22T10:24:21;12.90;99.90
39023;DHT22;25908;51.984;5.928;2023-03-22T10:26:48;12.90;99.90
39023;DHT22;25908;51.984;5.928;2023-03-22T10:29:32;12.90;99.90
39023;DHT22;25908;51.984;5.928;2023-03-22T10:32:18;12.90;99.90
39023;DHT22;25908;51.984;5.928;2023-03-22T10:34:45;12.90;99.90
39023;DHT22;25908;51.984;5.928;2023-03-22T10:37:15;12.90;99.90
39023;DHT22;25908;51.984;5.928;2023-03-22T10:39:44;12.90;99.90
39023;DHT22;25908;51.984;5.928;2023-03-22T10:42:14;12.80;99.90
39023;DHT22;25908;51.984;5.928;2023-03-22T10:44:53;12.80;99.90
39023;DHT22;25908;51.984;5.928;2023-03-22T10:47:57;12.70;99.90
39023;DHT22;25908;51.984;5.928;2023-03-22T10:50:29;12.70;99.90
39023;DHT22;25908;51.984;5.928;2023-03-22T10:55:25;12.50;99.90
39023;DHT22;25908;51.984;5.928;2023-03-22T10:57:58;12.50;99.90
39023;DHT22;25908;51.984;5.928;2023-03-22T11:00:29;12.40;99.90
39023;DHT22;25908;51.984;5.928;2023-03-22T11:02:58;12.50;99.90
39023;DHT22;25908;51.984;5.928;2023-03-22T11:05:26;12.40;99.90
39023;DHT22;25908;51.984;5.928;2023-03-22T11:07:52;12.50;99.90
39023;DHT22;25908;51.984;5.928;2023-03-22T11:10:25;12.40;99.90
39023;DHT22;25908;51.984;5.928;2023-03-22T11:13:10;12.50;99.90
39023;DHT22;25908;51.984;5.928;2023-03-22T11:15:57;12.50;99.90
39023;DHT22;25908;51.984;5.928;2023-03-22T11:18:28;12.40;99.90
39023;DHT22;25908;51.984;5.928;2023-03-22T11:21:05;12.40;99.90
39023;DHT22;25908;51.984;5.928;2023-03-22T11:23:33;12.50;99.90
39023;DHT22;25908;51.984;5.928;2023-03-22T11:26:05;12.40;99.90
39023;DHT22;25908;51.984;5.928;2023-03-22T11:28:39;12.40;99.90
39023;DHT22;25908;51.984;5.928;2023-03-22T11:31:11;12.40;99.90
39023;DHT22;25908;51.984;5.928;2023-03-22T11:36:17;12.30;99.90
39023;DHT22;25908;51.984;5.928;2023-03-22T11:38:43;12.30;99.90
39023;DHT22;25908;51.984;5.928;2023-03-22T11:41:21;12.30;99.90
39023;DHT22;25908;51.984;5.928;2023-03-22T11:43:51;12.30;99.90
39023;DHT22;25908;51.984;5.928;2023-03-22T11:46:18;12.30;99.90
39023;DHT22;25908;51.984;5.928;2023-03-22T11:48:45;12.30;99.90
39023;DHT22;25908;51.984;5.928;2023-03-22T11:51:14;12.30;99.90
39023;DHT22;25908;51.984;5.928;2023-03-22T11:53:47;12.30;99.90
39023;DHT22;25908;51.984;5.928;2023-03-22T11:56:18;12.40;99.90
39023;DHT22;25908;51.984;5.928;2023-03-22T12:01:25;12.30;99.90
39023;DHT22;25908;51.984;5.928;2023-03-22T12:03:55;12.30;99.90
39023;DHT22;25908;51.984;5.928;2023-03-22T12:06:28;12.30;99.90
39023;DHT22;25908;51.984;5.928;2023-03-22T12:11:40;12.40;99.90
39023;DHT22;25908;51.984;5.928;2023-03-22T12:14:36;12.40;99.90
39023;DHT22;25908;51.984;5.928;2023-03-22T12:20:14;12.40;99.90
39023;DHT22;25908;51.984;5.928;2023-03-22T12:22:44;12.30;99.90
39023;DHT22;25908;51.984;5.928;2023-03-22T12:25:16;12.30;99.90
39023;DHT22;25908;51.984;5.928;2023-03-22T12:27:47;12.30;99.90
39023;DHT22;25908;51.984;5.928;2023-03-22T12:33:02;12.30;99.90
39023;DHT22;25908;51.984;5.928;2023-03-22T12:35:33;12.30;99.90
39023;DHT22;25908;51.984;5.928;2023-03-22T12:38:06;12.40;99.90
39023;DHT22;25908;51.984;5.928;2023-03-22T12:40:38;12.30;99.90
39023;DHT22;25908;51.984;5.928;2023-03-22T12:45:58;12.40;99.90
39023;DHT22;25908;51.984;5.928;2023-03-22T12:48:35;12.40;99.90
39023;DHT22;25908;51.984;5.928;2023-03-22T12:51:07;12.50;99.90
39023;DHT22;25908;51.984;5.928;2023-03-22T12:53:36;12.50;99.90
39023;DHT22;25908;51.984;5.928;2023-03-22T12:56:12;12.60;99.90
39023;DHT22;25908;51.984;5.928;2023-03-22T12:58:39;12.60;99.90
39023;DHT22;25908;51.984;5.928;2023-03-22T13:01:22;12.60;99.90
39023;DHT22;25908;51.984;5.928;2023-03-22T13:03:52;12.60;99.90
39023;DHT22;25908;51.984;5.928;2023-03-22T13:06:29;12.60;99.90
39023;DHT22;25908;51.984;5.928;2023-03-22T13:11:44;12.50;99.90
39023;DHT22;25908;51.984;5.928;2023-03-22T13:20:01;12.50;99.90
39023;DHT22;25908;51.984;5.928;2023-03-22T13:28:11;12.60;99.90
39023;DHT22;25908;51.984;5.928;2023-03-22T13:30:49;12.60;99.90
39023;DHT22;25908;51.984;5.928;2023-03-22T13:43:46;12.70;99.90
39023;DHT22;25908;51.984;5.928;2023-03-22T13:51:31;12.70;99.90
39023;DHT22;25908;51.984;5.928;2023-03-22T13:54:05;12.70;99.90
39023;DHT22;25908;51.984;5.928;2023-03-22T13:56:56;12.70;99.90
39023;DHT22;25908;51.984;5.928;2023-03-22T14:02:02;12.70;99.90
39023;DHT22;25908;51.984;5.928;2023-03-22T14:07:53;12.70;99.90
39023;DHT22;25908;51.984;5.928;2023-03-22T14:10:03;12.70;99.90
39023;DHT22;25908;51.984;5.928;2023-03-22T14:12:51;12.70;99.90
39023;DHT22;25908;51.984;5.928;2023-03-22T14:15:30;12.80;99.90
39023;DHT22;25908;51.984;5.928;2023-03-22T14:18:04;12.80;99.90
39023;DHT22;25908;51.984;5.928;2023-03-22T14:20:34;12.80;99.90
39023;DHT22;25908;51.984;5.928;2023-03-22T14:25:31;12.80;99.90
39023;DHT22;25908;51.984;5.928;2023-03-22T14:27:58;12.70;99.90
39023;DHT22;25908;51.984;5.928;2023-03-22T14:32:49;12.60;99.90
39023;DHT22;25908;51.984;5.928;2023-03-22T14:35:25;12.60;99.90
39023;DHT22;25908;51.984;5.928;2023-03-22T14:37:59;12.50;99.90
39023;DHT22;25908;51.984;5.928;2023-03-22T14:40:31;12.50;99.90
39023;DHT22;25908;51.984;5.928;2023-03-22T14:43:28;12.50;99.90
39023;DHT22;25908;51.984;5.928;2023-03-22T14:46:17;12.50;99.90
39023;DHT22;25908;51.984;5.928;2023-03-22T14:48:48;12.50;99.90
39023;DHT22;25908;51.984;5.928;2023-03-22T14:51:19;12.50;99.90
39023;DHT22;25908;51.984;5.928;2023-03-22T14:53:45;12.50;99.90
39023;DHT22;25908;51.984;5.928;2023-03-22T14:56:21;12.50;99.90
39023;DHT22;25908;51.984;5.928;2023-03-22T14:58:50;12.50;99.90
39023;DHT22;25908;51.984;5.928;2023-03-22T15:01:29;12.50;99.90
39023;DHT22;25908;51.984;5.928;2023-03-22T15:03:58;12.50;99.90
39023;DHT22;25908;51.984;5.928;2023-03-22T15:06:27;12.50;99.90
39023;DHT22;25908;51.984;5.928;2023-03-22T15:08:53;12.60;99.90
39023;DHT22;25908;51.984;5.928;2023-03-22T15:11:21;12.60;99.90
39023;DHT22;25908;51.984;5.928;2023-03-22T15:13:48;12.60;99.90
39023;DHT22;25908;51.984;5.928;2023-03-22T15:16:18;12.60;99.90
39023;DHT22;25908;51.984;5.928;2023-03-22T15:18:47;12.60;99.90
39023;DHT22;25908;51.984;5.928;2023-03-22T15:21:13;12.60;99.90
39023;DHT22;25908;51.984;5.928;2023-03-22T15:23:48;12.70;99.90
39023;DHT22;25908;51.984;5.928;2023-03-22T15:26:17;12.70;99.90
39023;DHT22;25908;51.984;5.928;2023-03-22T15:29:10;12.70;99.90
39023;DHT22;25908;51.984;5.928;2023-03-22T15:31:42;12.70;99.90
39023;DHT22;25908;51.984;5.928;2023-03-22T15:34:21;12.70;99.90
39023;DHT22;25908;51.984;5.928;2023-03-22T15:36:48;12.70;99.90
39023;DHT22;25908;51.984;5.928;2023-03-22T15:39:46;12.70;99.90
39023;DHT22;25908;51.984;5.928;2023-03-22T15:42:30;12.70;99.90
39023;DHT22;25908;51.984;5.928;2023-03-22T15:48:15;12.70;99.90
39023;DHT22;25908;51.984;5.928;2023-03-22T15:50:41;12.70;99.90
39023;DHT22;25908;51.984;5.928;2023-03-22T15:53:29;12.60;99.90
39023;DHT22;25908;51.984;5.928;2023-03-22T15:55:55;12.60;99.90
39023;DHT22;25908;51.984;5.928;2023-03-22T15:58:32;12.60;99.90
39023;DHT22;25908;51.984;5.928;2023-03-22T16:01:15;12.60;99.90
39023;DHT22;25908;51.984;5.928;2023-03-22T16:03:45;12.60;99.90
39023;DHT22;25908;51.984;5.928;2023-03-22T16:06:14;12.60;99.90
39023;DHT22;25908;51.984;5.928;2023-03-22T16:08:39;12.60;99.90
39023;DHT22;25908;51.984;5.928;2023-03-22T16:11:05;12.50;99.90
39023;DHT22;25908;51.984;5.928;2023-03-22T16:13:31;12.50;99.90
39023;DHT22;25908;51.984;5.928;2023-03-22T16:16:00;12.50;99.90
39023;DHT22;25908;51.984;5.928;2023-03-22T16:18:25;12.50;99.90
39023;DHT22;25908;51.984;5.928;2023-03-22T16:20:51;12.60;99.90
39023;DHT22;25908;51.984;5.928;2023-03-22T16:23:22;12.60;99.90
39023;DHT22;25908;51.984;5.928;2023-03-22T16:25:48;12.60;99.90
39023;DHT22;25908;51.984;5.928;2023-03-22T16:28:14;12.50;99.90
39023;DHT22;25908;51.984;5.928;2023-03-22T16:30:41;12.50;99.90
39023;DHT22;25908;51.984;5.928;2023-03-22T16:33:12;12.50;99.90
39023;DHT22;25908;51.984;5.928;2023-03-22T16:35:38;12.50;99.90
39023;DHT22;25908;51.984;5.928;2023-03-22T16:38:04;12.50;99.90
39023;DHT22;25908;51.984;5.928;2023-03-22T16:40:29;12.50;99.90
39023;DHT22;25908;51.984;5.928;2023-03-22T16:42:56;12.40;99.90
39023;DHT22;25908;51.984;5.928;2023-03-22T16:45:23;12.40;99.90
39023;DHT22;25908;51.984;5.928;2023-03-22T16:47:50;12.40;99.90
39023;DHT22;25908;51.984;5.928;2023-03-22T16:50:17;12.40;99.90
39023;DHT22;25908;51.984;5.928;2023-03-22T16:52:43;12.30;99.90
39023;DHT22;25908;51.984;5.928;2023-03-22T16:55:19;12.30;99.90
39023;DHT22;25908;51.984;5.928;2023-03-22T16:57:46;12.30;99.90
39023;DHT22;25908;51.984;5.928;2023-03-22T17:00:12;12.30;99.90
39023;DHT22;25908;51.984;5.928;2023-03-22T17:02:39;12.20;99.90
39023;DHT22;25908;51.984;5.928;2023-03-22T17:05:07;12.20;99.90
39023;DHT22;25908;51.984;5.928;2023-03-22T17:07:34;12.20;99.90
39023;DHT22;25908;51.984;5.928;2023-03-22T17:10:00;12.20;99.90
39023;DHT22;25908;51.984;5.928;2023-03-22T17:12:32;12.20;99.90
39023;DHT22;25908;51.984;5.928;2023-03-22T17:14:59;12.20;99.90
39023;DHT22;25908;51.984;5.928;2023-03-22T17:17:25;12.20;99.90
39023;DHT22;25908;51.984;5.928;2023-03-22T17:19:55;12.20;99.90
39023;DHT22;25908;51.984;5.928;2023-03-22T17:22:22;12.20;99.90
39023;DHT22;25908;51.984;5.928;2023-03-22T17:24:48;12.20;99.90
39023;DHT22;25908;51.984;5.928;2023-03-22T17:27:14;12.20;99.90
39023;DHT22;25908;51.984;5.928;2023-03-22T17:29:40;12.20;99.90